Time;durP1;ratioP1;P1;durP2;ratioP2;P2;SDS_P1;SDS_P2;PMS_P1;PMS_P2;Temp;Humidity;BMP_temperature;BMP_pressure;BME280_temperature;BME280_humidity;BME280_pressure;Samples;Min_cycle;Max_cycle;Signal;HPM_P1;HPM_P2
2023/02/24 00:00:29;;;;;;;;;;;;;;;7.70;100.00;98143.97;5021737;28;19971;-61
2023/02/24 00:02:46;;;;;;;;;;;;;;;7.63;100.00;98142.41;5005022;28;20025;-61
2023/02/24 00:05:11;;;;;;;;;;;;;;;7.60;100.00;98137.31;5021992;28;19925;-61
2023/02/24 00:07:37;;;;;;;;;;;;;;;7.56;100.00;98137.38;5018222;28;19933;-61
2023/02/24 00:10:02;;;;;;;;;;;;;;;7.53;100.00;98140.00;5020742;28;19924;-61
2023/02/24 00:12:28;;;;;;;;;;;;;;;7.50;100.00;98132.41;5020364;28;19970;-61
2023/02/24 00:14:53;;;;;;;;;;;;;;;7.45;100.00;98132.47;5019411;28;19967;-62
2023/02/24 00:17:19;;;;;;;;;;;;;;;7.41;100.00;98124.88;5019842;28;19936;-60
2023/02/24 00:19:45;;;;;;;;;;;;;;;7.46;100.00;98123.94;5021622;28;20368;-60
2023/02/24 00:22:11;;;;;;;;;;;;;;;7.41;100.00;98128.28;5018863;28;19928;-61
2023/02/24 00:24:37;;;;;;;;;;;;;;;7.35;100.00;98125.78;5021490;28;20092;-61
2023/02/24 00:27:06;;;;;;;;;;;;;;;7.33;100.00;98120.72;5019743;28;20363;-62
2023/02/24 00:29:32;;;;;;;;;;;;;;;7.29;100.00;98108.91;5018494;28;19967;-60
2023/02/24 00:31:58;;;;;;;;;;;;;;;7.30;100.00;98117.34;5017311;28;20410;-60
2023/02/24 00:34:25;;;;;;;;;;;;;;;7.29;100.00;98113.16;5036003;28;20516;-60
2023/02/24 00:36:51;;;;;;;;;;;;;;;7.24;100.00;98114.91;5011664;28;19927;-60
2023/02/24 00:39:16;;;;;;;;;;;;;;;7.21;100.00;98112.41;5018606;28;20152;-60
2023/02/24 00:41:42;;;;;;;;;;;;;;;7.13;100.00;98120.16;5002769;28;19963;-61
2023/02/24 00:44:10;;;;;;;;;;;;;;;7.13;100.00;98114.22;5020784;28;20078;-60
2023/02/24 00:46:38;;;;;;;;;;;;;;;7.13;100.00;98112.50;5002554;28;20024;-61
2023/02/24 00:49:05;;;;;;;;;;;;;;;7.12;100.00;98103.19;5018562;28;20377;-60
2023/02/24 00:51:38;;;;;;;;;;;;;;;7.06;100.00;98107.50;5002116;28;19995;-61
2023/02/24 00:54:04;;;;;;;;;;;;;;;7.06;100.00;98103.25;5019679;28;19964;-61
2023/02/24 00:56:31;;;;;;;;;;;;;;;7.09;100.00;98102.38;5021441;28;19925;-61
2023/02/24 00:58:57;;;;;;;;;;;;;;;7.10;100.00;98096.41;5034480;28;19977;-61
2023/02/24 01:01:26;;;;;;;;;;;;;;;7.13;100.00;98094.66;5019640;28;19929;-61
2023/02/24 01:03:55;;;;;;;;;;;;;;;7.14;100.00;98096.34;5020594;28;20765;-61
2023/02/24 01:06:28;;;;;;;;;;;;;;;7.13;100.00;98088.75;5004643;28;20062;-61
2023/02/24 01:08:56;;;;;;;;;;;;;;;7.11;100.00;98093.00;5007902;28;19926;-61
2023/02/24 01:14:16;;;;;;;;;;;;;;;7.01;100.00;98087.19;5000799;28;20009;-61
2023/02/24 01:16:49;;;;;;;;;;;;;;;7.00;100.00;98085.50;5014641;28;20246;-61
2023/02/24 01:19:19;;;;;;;;;;;;;;;7.04;100.00;98082.06;5032255;28;19929;-61
2023/02/24 01:21:45;;;;;;;;;;;;;;;7.02;100.00;98083.78;5017101;28;20031;-60
2023/02/24 01:24:14;;;;;;;;;;;;;;;7.02;100.00;98075.28;5018725;28;20008;-61
2023/02/24 01:26:40;;;;;;;;;;;;;;;6.97;100.00;98075.34;5032118;28;19925;-61
2023/02/24 01:29:08;;;;;;;;;;;;;;;6.93;100.00;98068.63;5017268;28;19921;-61
2023/02/24 01:31:35;;;;;;;;;;;;;;;6.91;100.00;98070.34;5011358;28;19960;-61
2023/02/24 01:34:04;;;;;;;;;;;;;;;6.87;100.00;98068.72;5017138;28;19924;-62
2023/02/24 01:36:31;;;;;;;;;;;;;;;6.82;100.00;98063.69;5017401;28;19980;-61
2023/02/24 01:38:58;;;;;;;;;;;;;;;6.77;100.00;98057.78;5015546;28;20323;-60
2023/02/24 01:41:26;;;;;;;;;;;;;;;6.73;100.00;98063.78;5020374;28;20000;-61
2023/02/24 01:43:57;;;;;;;;;;;;;;;6.69;100.00;98061.31;4993434;28;20015;-62
2023/02/24 01:46:31;;;;;;;;;;;;;;;6.64;100.00;98057.97;5017261;28;20449;-61
2023/02/24 01:49:09;;;;;;;;;;;;;;;6.57;100.00;98053.81;4995243;28;20442;-62
2023/02/24 01:51:38;;;;;;;;;;;;;;;6.50;100.00;98065.75;4999669;28;20057;-61
2023/02/24 01:54:05;;;;;;;;;;;;;;;6.44;100.00;98055.66;5008978;28;19929;-61
2023/02/24 01:56:31;;;;;;;;;;;;;;;6.39;100.00;98055.72;5030413;28;19968;-61
2023/02/24 01:58:58;;;;;;;;;;;;;;;6.36;100.00;98054.91;5015346;28;19957;-61
2023/02/24 02:01:24;;;;;;;;;;;;;;;6.33;100.00;98049.84;4997785;28;20020;-62
2023/02/24 02:03:51;;;;;;;;;;;;;;;6.29;100.00;98051.59;5018079;28;20367;-60
2023/02/24 02:06:17;;;;;;;;;;;;;;;6.27;100.00;98044.84;5017942;28;19929;-59
2023/02/24 02:08:44;;;;;;;;;;;;;;;6.20;100.00;98046.59;5020348;28;19925;-60
2023/02/24 02:11:11;;;;;;;;;;;;;;;6.17;100.00;98045.78;5002221;28;19929;-61
2023/02/24 02:13:39;;;;;;;;;;;;;;;6.12;100.00;98040.75;5014682;28;19925;-63
2023/02/24 02:16:13;;;;;;;;;;;;;;;6.09;100.00;98040.78;5016268;28;19925;-62
2023/02/24 02:18:55;;;;;;;;;;;;;;;6.04;100.00;98040.00;5006395;28;20007;-61
2023/02/24 02:21:24;;;;;;;;;;;;;;;6.04;100.00;98044.22;5004964;28;19925;-62
2023/02/24 02:23:58;;;;;;;;;;;;;;;6.04;100.00;98034.91;5022016;28;20333;-62
2023/02/24 02:26:27;;;;;;;;;;;;;;;6.07;100.00;98039.94;5008856;28;19932;-61
2023/02/24 02:28:54;;;;;;;;;;;;;;;6.10;100.00;98032.31;5007707;28;19945;-60
2023/02/24 02:31:35;;;;;;;;;;;;;;;6.12;100.00;98038.22;5009080;28;20461;-62
2023/02/24 02:34:24;;;;;;;;;;;;;;;6.14;100.00;98035.66;5021865;28;19928;-62
2023/02/24 02:37:04;;;;;;;;;;;;;;;6.12;100.00;98034.81;5020276;28;19929;-62
2023/02/24 02:39:57;;;;;;;;;;;;;;;6.07;100.00;98034.84;5022962;28;19921;-62
2023/02/24 02:42:23;;;;;;;;;;;;;;;6.06;100.00;98032.34;4978090;28;19936;-61
2023/02/24 02:44:54;;;;;;;;;;;;;;;6.07;100.00;98029.78;4956896;28;19926;-62
2023/02/24 02:47:26;;;;;;;;;;;;;;;6.08;100.00;98035.72;4961050;28;19971;-60
2023/02/24 02:49:54;;;;;;;;;;;;;;;6.10;100.00;98037.41;4975932;28;19987;-59
2023/02/24 02:52:33;;;;;;;;;;;;;;;6.17;100.00;98040.69;4980158;28;20413;-61
2023/02/24 02:55:08;;;;;;;;;;;;;;;6.17;100.00;98036.47;4977305;28;19960;-61
2023/02/24 02:57:36;;;;;;;;;;;;;;;6.18;100.00;98032.22;4963825;28;19929;-61
2023/02/24 03:00:13;;;;;;;;;;;;;;;6.24;100.00;98032.13;4979483;28;20165;-60
2023/02/24 03:02:45;;;;;;;;;;;;;;;6.23;100.00;98025.38;4978326;28;20314;-60
2023/02/24 03:05:16;;;;;;;;;;;;;;;6.25;100.00;98029.56;4971784;28;19942;-61
2023/02/24 03:07:45;;;;;;;;;;;;;;;6.27;100.00;98021.94;4964924;28;20419;-59
2023/02/24 03:10:19;;;;;;;;;;;;;;;6.27;100.00;98024.47;4964890;28;19926;-60
2023/02/24 03:12:46;;;;;;;;;;;;;;;6.26;100.00;98028.72;4978286;28;20429;-61
2023/02/24 03:15:12;;;;;;;;;;;;;;;6.26;100.00;98023.63;4977607;28;19972;-61
2023/02/24 03:17:40;;;;;;;;;;;;;;;6.28;100.00;98026.16;4978364;28;20301;-62
2023/02/24 03:20:15;;;;;;;;;;;;;;;6.28;100.00;98024.44;4997987;28;20016;-60
2023/02/24 03:22:46;;;;;;;;;;;;;;;6.28;100.00;98026.16;5005359;28;19933;-61
2023/02/24 03:25:12;;;;;;;;;;;;;;;6.26;100.00;98021.09;4983805;28;20552;-60
2023/02/24 03:27:44;;;;;;;;;;;;;;;6.29;100.00;98015.09;4988403;28;20099;-61
2023/02/24 03:30:14;;;;;;;;;;;;;;;6.36;100.00;98025.22;4988715;28;19932;-61
2023/02/24 03:32:53;;;;;;;;;;;;;;;6.46;100.00;98020.00;5003058;28;20515;-62
2023/02/24 03:35:24;;;;;;;;;;;;;;;6.42;100.00;98021.72;4988699;28;19925;-62
2023/02/24 03:37:52;;;;;;;;;;;;;;;6.40;100.00;98026.88;4986894;28;20390;-60
2023/02/24 03:40:19;;;;;;;;;;;;;;;6.49;100.00;98018.28;4971782;28;19925;-60
2023/02/24 03:42:47;;;;;;;;;;;;;;;6.51;100.00;98021.63;5016174;28;19926;-60
2023/02/24 03:45:15;;;;;;;;;;;;;;;6.48;100.00;98024.22;5015964;28;20040;-60
2023/02/24 03:47:41;;;;;;;;;;;;;;;6.50;100.00;98021.63;5002552;28;19936;-60
2023/02/24 03:50:12;;;;;;;;;;;;;;;6.48;100.00;98023.38;5000761;28;20390;-60
2023/02/24 03:52:50;;;;;;;;;;;;;;;6.47;100.00;98014.03;4987437;28;19929;-60
2023/02/24 03:55:20;;;;;;;;;;;;;;;6.49;100.00;98023.38;5001471;28;20035;-59
2023/02/24 03:57:58;;;;;;;;;;;;;;;6.52;100.00;98019.94;4985969;28;19926;-60
2023/02/24 04:00:43;;;;;;;;;;;;;;;6.60;100.00;98015.56;5019447;28;20424;-60
2023/02/24 04:03:12;;;;;;;;;;;;;;;6.57;100.00;98006.28;5002539;28;20120;-60
2023/02/24 04:05:53;;;;;;;;;;;;;;;6.53;100.00;98011.44;4986397;28;20940;-61
2023/02/24 04:08:22;;;;;;;;;;;;;;;6.44;100.00;97999.66;4984587;28;20031;-60
2023/02/24 04:10:52;;;;;;;;;;;;;;;6.56;100.00;97998.66;4999383;28;19929;-61
2023/02/24 04:13:47;;;;;;;;;;;;;;;6.54;100.00;97995.25;5029181;28;19925;-61
2023/02/24 04:16:38;;;;;;;;;;;;;;;6.51;100.00;97993.63;4998667;28;19929;-60
2023/02/24 04:19:12;;;;;;;;;;;;;;;6.49;100.00;97995.34;5017321;28;19931;-60
2023/02/24 04:21:41;;;;;;;;;;;;;;;6.49;100.00;98000.44;5020345;28;19996;-61
2023/02/24 04:24:14;;;;;;;;;;;;;;;6.63;100.00;98003.63;5006309;28;19952;-60
2023/02/24 04:26:43;;;;;;;;;;;;;;;6.61;100.00;98005.38;5036047;28;20500;-60
2023/02/24 04:29:16;;;;;;;;;;;;;;;6.54;100.00;97996.13;5021471;28;19925;-60
2023/02/24 04:31:47;;;;;;;;;;;;;;;6.49;100.00;97991.97;5035719;28;20285;-61
2023/02/24 04:34:18;;;;;;;;;;;;;;;6.40;100.00;97991.22;5019763;28;19925;-60
2023/02/24 04:36:48;;;;;;;;;;;;;;;6.47;100.00;97984.34;4989251;28;19925;-60
2023/02/24 04:39:18;;;;;;;;;;;;;;;6.40;100.00;97983.59;5004160;28;20384;-61
2023/02/24 04:41:49;;;;;;;;;;;;;;;6.35;100.00;97969.22;5012358;28;19963;-61
2023/02/24 04:44:19;;;;;;;;;;;;;;;6.29;100.00;97972.69;5021285;28;19961;-61
2023/02/24 04:46:46;;;;;;;;;;;;;;;6.22;100.00;97973.63;5022184;28;19940;-60
2023/02/24 04:49:11;;;;;;;;;;;;;;;6.20;100.00;97975.34;5023389;28;20418;-61
2023/02/24 04:51:41;;;;;;;;;;;;;;;6.13;100.00;97973.75;5020919;28;19970;-61
2023/02/24 04:54:12;;;;;;;;;;;;;;;6.06;100.00;97968.75;5020293;28;20330;-60
2023/02/24 04:56:39;;;;;;;;;;;;;;;6.03;100.00;97966.22;5019283;28;19972;-60
2023/02/24 04:59:05;;;;;;;;;;;;;;;5.98;100.00;97966.28;5019604;28;19929;-60
2023/02/24 05:01:30;;;;;;;;;;;;;;;5.94;100.00;97964.66;5019298;28;19925;-60
2023/02/24 05:03:56;;;;;;;;;;;;;;;5.95;100.00;97963.75;5019735;28;19928;-61
2023/02/24 05:06:22;;;;;;;;;;;;;;;5.89;100.00;97964.69;5019857;28;20044;-59
2023/02/24 05:08:51;;;;;;;;;;;;;;;5.83;100.00;97954.53;5016004;28;20368;-61
2023/02/24 05:11:17;;;;;;;;;;;;;;;5.77;100.00;97956.31;5018480;28;19929;-60
2023/02/24 05:13:46;;;;;;;;;;;;;;;5.69;100.00;97951.31;5018148;28;19964;-62
2023/02/24 05:16:12;;;;;;;;;;;;;;;5.61;100.00;97950.53;5018188;28;19937;-62
2023/02/24 05:18:38;;;;;;;;;;;;;;;5.59;100.00;97942.09;5019007;28;20031;-61
2023/02/24 05:23:58;;;;;;;;;;;;;;;5.47;100.00;97930.34;5019518;28;19959;-60
2023/02/24 05:26:24;;;;;;;;;;;;;;;5.44;100.00;97919.38;5012835;28;19925;-59
2023/02/24 05:28:51;;;;;;;;;;;;;;;5.42;100.00;97926.19;5020615;28;19935;-55
2023/02/24 05:31:27;;;;;;;;;;;;;;;5.43;100.00;97925.31;5015245;28;20116;-61
2023/02/24 05:33:54;;;;;;;;;;;;;;;5.51;100.00;97931.19;5015728;28;19921;-62
2023/02/24 05:36:21;;;;;;;;;;;;;;;5.53;100.00;97927.75;5017697;28;20010;-62
2023/02/24 05:38:47;;;;;;;;;;;;;;;5.48;100.00;97928.63;5018027;28;20016;-62
2023/02/24 05:41:17;;;;;;;;;;;;;;;5.42;100.00;97939.72;5018717;28;19960;-62
2023/02/24 05:43:46;;;;;;;;;;;;;;;5.36;100.00;97941.47;5018251;28;20323;-62
2023/02/24 05:46:15;;;;;;;;;;;;;;;5.29;100.00;97934.78;5019188;28;19929;-61
2023/02/24 05:48:41;;;;;;;;;;;;;;;5.21;100.00;97931.47;5016328;28;19929;-62
2023/02/24 05:51:10;;;;;;;;;;;;;;;5.17;100.00;97940.81;5015596;28;19933;-60
2023/02/24 05:53:40;;;;;;;;;;;;;;;5.11;100.00;97932.38;5020202;28;19929;-62
2023/02/24 05:56:09;;;;;;;;;;;;;;;5.06;100.00;97937.50;5038063;28;19929;-62
2023/02/24 05:58:38;;;;;;;;;;;;;;;5.00;100.00;97932.50;5022565;28;20538;-61
2023/02/24 06:01:20;;;;;;;;;;;;;;;4.99;100.00;97930.81;5020732;28;19936;-63
2023/02/24 06:03:46;;;;;;;;;;;;;;;4.98;100.00;97927.41;5022877;28;20787;-61
2023/02/24 06:06:13;;;;;;;;;;;;;;;4.94;100.00;97924.91;5023199;28;20395;-61
2023/02/24 06:08:48;;;;;;;;;;;;;;;4.91;100.00;97923.25;5009638;28;19925;-65
2023/02/24 06:11:16;;;;;;;;;;;;;;;4.87;100.00;97923.28;5021762;28;20484;-61
2023/02/24 06:13:46;;;;;;;;;;;;;;;4.86;100.00;97939.38;5021442;28;19932;-61
2023/02/24 06:16:13;;;;;;;;;;;;;;;4.78;100.00;97916.59;5021490;28;19944;-61
2023/02/24 06:18:39;;;;;;;;;;;;;;;4.87;100.00;97926.66;5022790;28;19947;-63
2023/02/24 06:21:06;;;;;;;;;;;;;;;4.88;100.00;97930.88;5021463;28;19936;-62
2023/02/24 06:23:32;;;;;;;;;;;;;;;4.87;100.00;97934.28;5021832;28;20002;-60
2023/02/24 06:26:01;;;;;;;;;;;;;;;4.96;100.00;97938.47;5020840;28;19934;-62
2023/02/24 06:28:27;;;;;;;;;;;;;;;5.03;100.00;97935.00;5020407;28;19968;-60
2023/02/24 06:30:52;;;;;;;;;;;;;;;5.09;100.00;97936.66;5004371;28;20447;-61
2023/02/24 06:33:18;;;;;;;;;;;;;;;5.15;100.00;97927.28;5021897;28;20404;-60
2023/02/24 06:35:43;;;;;;;;;;;;;;;5.27;100.00;97934.78;5022463;28;19921;-62
2023/02/24 06:38:08;;;;;;;;;;;;;;;5.33;100.00;97927.09;5020046;28;20046;-61
2023/02/24 06:40:36;;;;;;;;;;;;;;;5.42;100.00;97924.47;5022130;28;20392;-62
2023/02/24 06:43:02;;;;;;;;;;;;;;;5.46;100.00;97917.66;5021995;28;19929;-61
2023/02/24 06:45:29;;;;;;;;;;;;;;;5.51;100.00;97921.00;5021934;28;20241;-61
2023/02/24 06:47:54;;;;;;;;;;;;;;;5.58;100.00;97934.47;5017784;28;19961;-60
2023/02/24 06:50:20;;;;;;;;;;;;;;;5.68;100.00;97928.44;5021672;28;19955;-61
2023/02/24 06:52:47;;;;;;;;;;;;;;;5.79;100.00;97931.69;5016771;28;19956;-59
2023/02/24 06:55:25;;;;;;;;;;;;;;;5.89;100.00;97931.63;5020914;28;19943;-60
2023/02/24 06:57:58;;;;;;;;;;;;;;;6.02;100.00;97921.31;5019636;28;20871;-60
2023/02/24 07:00:35;;;;;;;;;;;;;;;6.12;100.00;97923.69;5020637;28;20033;-59
2023/02/24 07:03:13;;;;;;;;;;;;;;;6.22;100.00;97914.25;5020245;28;19950;-59
2023/02/24 07:05:39;;;;;;;;;;;;;;;6.34;100.00;97912.38;5015974;28;20058;-60
2023/02/24 07:08:07;;;;;;;;;;;;;;;6.40;100.00;97912.31;5035564;28;19944;-60
2023/02/24 07:10:33;;;;;;;;;;;;;;;6.47;100.00;97915.59;5020005;28;19982;-59
2023/02/24 07:12:59;;;;;;;;;;;;;;;6.61;100.00;97918.78;5022002;28;20473;-60
2023/02/24 07:15:24;;;;;;;;;;;;;;;6.73;100.00;97915.22;5003253;28;20006;-60
2023/02/24 07:17:53;;;;;;;;;;;;;;;6.88;100.00;97915.81;4993505;28;20501;-60
2023/02/24 07:20:25;;;;;;;;;;;;;;;6.99;100.00;97912.25;5018454;28;19925;-59
2023/02/24 07:22:50;;;;;;;;;;;;;;;7.11;100.00;97907.78;5020565;28;20302;-62
2023/02/24 07:25:31;;;;;;;;;;;;;;;7.27;100.00;97899.00;5026362;28;19990;-60
2023/02/24 07:27:59;;;;;;;;;;;;;;;7.39;100.00;97907.28;5002218;28;20019;-61
2023/02/24 07:30:25;;;;;;;;;;;;;;;7.41;100.00;97901.31;5036316;28;19959;-61
2023/02/24 07:32:54;;;;;;;;;;;;;;;7.42;100.00;97904.72;5005674;28;20397;-61
2023/02/24 07:35:20;;;;;;;;;;;;;;;7.55;100.00;97893.41;5020563;28;20027;-60
2023/02/24 07:37:47;;;;;;;;;;;;;;;7.59;100.00;97889.94;5020064;28;19959;-62
2023/02/24 07:40:16;;;;;;;;;;;;;;;7.67;100.00;97893.19;5015830;28;20264;-61
2023/02/24 07:42:46;;;;;;;;;;;;;;;7.91;100.00;97892.69;5019493;28;19935;-61
2023/02/24 07:45:12;;;;;;;;;;;;;;;8.16;100.00;97883.63;5017290;28;19967;-61
2023/02/24 07:47:39;;;;;;;;;;;;;;;8.38;100.00;97884.06;5014776;28;20388;-60
2023/02/24 07:50:12;;;;;;;;;;;;;;;8.57;100.00;97882.75;5001976;28;19982;-61
2023/02/24 07:52:38;;;;;;;;;;;;;;;8.81;100.00;97878.78;5002600;28;19947;-60
2023/02/24 07:55:04;;;;;;;;;;;;;;;8.92;100.00;97876.81;5016344;28;20471;-61
2023/02/24 07:57:32;;;;;;;;;;;;;;;9.08;100.00;97864.50;5017362;28;19925;-61
2023/02/24 07:59:58;;;;;;;;;;;;;;;9.26;100.00;97863.16;5032697;28;20025;-61
2023/02/24 08:02:24;;;;;;;;;;;;;;;9.41;100.00;97861.06;5018120;28;19943;-59
2023/02/24 08:04:50;;;;;;;;;;;;;;;9.64;100.00;97855.31;5020292;28;19968;-59
2023/02/24 08:07:22;;;;;;;;;;;;;;;9.87;100.00;97850.38;5013856;28;20354;-59
2023/02/24 08:10:08;;;;;;;;;;;;;;;10.06;100.00;97848.94;5017642;28;20433;-59
2023/02/24 08:12:34;;;;;;;;;;;;;;;10.30;100.00;97842.31;5017189;28;20263;-59
2023/02/24 08:14:59;;;;;;;;;;;;;;;10.43;100.00;97835.94;5016685;28;19944;-60
2023/02/24 08:17:25;;;;;;;;;;;;;;;10.63;100.00;97837.00;5017963;28;20335;-61
2023/02/24 08:20:20;;;;;;;;;;;;;;;10.72;100.00;97839.28;5000483;28;20205;-60
2023/02/24 08:22:37;;;;;;;;;;;;;;;10.94;100.00;97830.84;5017532;28;19940;-60
2023/02/24 08:25:05;;;;;;;;;;;;;;;11.09;100.00;97831.19;5016896;28;20698;-60
2023/02/24 08:27:31;;;;;;;;;;;;;;;11.25;100.00;97829.78;5017721;28;19936;-60
2023/02/24 08:29:58;;;;;;;;;;;;;;;11.39;100.00;97820.72;5017595;28;19966;-60
2023/02/24 08:32:25;;;;;;;;;;;;;;;11.55;100.00;97825.31;5015453;28;19985;-60
2023/02/24 08:34:55;;;;;;;;;;;;;;;11.66;100.00;97829.19;5015739;28;19943;-60
2023/02/24 08:37:22;;;;;;;;;;;;;;;11.67;100.00;97823.13;5015181;28;20018;-60
2023/02/24 08:39:52;;;;;;;;;;;;;;;11.85;100.00;97821.66;5017927;28;19974;-60
2023/02/24 08:42:18;;;;;;;;;;;;;;;12.13;100.00;97812.03;5016364;28;19952;-59
2023/02/24 08:44:45;;;;;;;;;;;;;;;12.31;100.00;97815.59;5016057;28;20013;-60
2023/02/24 08:47:12;;;;;;;;;;;;;;;12.51;100.00;97815.69;4993005;28;19934;-60
2023/02/24 08:49:39;;;;;;;;;;;;;;;12.71;100.00;97802.00;5013546;28;20339;-63
2023/02/24 08:52:06;;;;;;;;;;;;;;;12.76;100.00;97806.06;5027471;28;19945;-59
2023/02/24 08:54:32;;;;;;;;;;;;;;;13.02;100.00;97807.56;5011925;28;20460;-60
2023/02/24 08:57:06;;;;;;;;;;;;;;;13.18;100.00;97798.34;5018151;28;19945;-61
2023/02/24 08:59:36;;;;;;;;;;;;;;;13.20;100.00;97798.25;4999232;28;20016;-60
2023/02/24 09:02:23;;;;;;;;;;;;;;;13.48;100.00;97795.31;5014992;28;19996;-60
2023/02/24 09:04:50;;;;;;;;;;;;;;;13.65;100.00;97790.28;5018096;28;19951;-60
2023/02/24 09:07:24;;;;;;;;;;;;;;;13.41;100.00;97783.63;5020540;28;19964;-59
2023/02/24 09:09:55;;;;;;;;;;;;;;;13.67;100.00;97788.44;5017370;28;19955;-59
2023/02/24 09:12:23;;;;;;;;;;;;;;;13.88;100.00;97779.75;5013813;28;19968;-60
2023/02/24 09:14:49;;;;;;;;;;;;;;;13.92;100.00;97785.63;5019158;28;20046;-60
2023/02/24 09:17:19;;;;;;;;;;;;;;;14.03;100.00;97773.06;5031537;28;20512;-60
2023/02/24 09:22:30;;;;;;;;;;;;;;;14.23;100.00;97770.38;5018905;28;20418;-59
2023/02/24 09:25:16;;;;;;;;;;;;;;;14.32;100.00;97761.38;5015624;28;20348;-60
2023/02/24 09:27:41;;;;;;;;;;;;;;;14.45;100.00;97762.50;5019583;28;19939;-62
2023/02/24 09:30:24;;;;;;;;;;;;;;;14.29;100.00;97756.38;5022382;28;19929;-60
2023/02/24 09:32:59;;;;;;;;;;;;;;;14.46;100.00;97754.69;5023770;28;20512;-61
2023/02/24 09:35:35;;;;;;;;;;;;;;;14.40;100.00;97747.22;5022192;28;20080;-61
2023/02/24 09:38:04;;;;;;;;;;;;;;;14.70;100.00;97747.47;5010180;28;19959;-60
2023/02/24 09:40:39;;;;;;;;;;;;;;;14.92;100.00;97745.50;5024482;28;19941;-61
2023/02/24 09:43:16;;;;;;;;;;;;;;;15.04;100.00;97739.72;5014980;28;19960;-61
2023/02/24 09:46:13;;;;;;;;;;;;;;;15.04;97.30;97737.13;5022906;28;19927;-62
2023/02/24 09:48:43;;;;;;;;;;;;;;;15.02;96.14;97740.72;5023053;28;19959;-62
2023/02/24 09:51:20;;;;;;;;;;;;;;;14.89;92.10;97730.19;5024077;28;20015;-59
2023/02/24 09:53:51;;;;;;;;;;;;;;;15.02;93.29;97727.81;5007500;28;19935;-60
2023/02/24 09:56:26;;;;;;;;;;;;;;;15.01;92.31;97726.13;5026260;28;20460;-62
2023/02/24 09:59:24;;;;;;;;;;;;;;;15.16;91.72;97725.31;5025312;28;19946;-61
2023/02/24 10:02:01;;;;;;;;;;;;;;;15.09;91.68;97723.97;4985451;28;20519;-61
2023/02/24 10:04:47;;;;;;;;;;;;;;;15.17;89.12;97715.84;4985958;28;19936;-62
2023/02/24 10:07:37;;;;;;;;;;;;;;;14.99;90.37;97709.88;4986044;28;19925;-62
2023/02/24 10:10:35;;;;;;;;;;;;;;;15.02;92.31;97712.31;4969644;28;19930;-62
2023/02/24 10:13:29;;;;;;;;;;;;;;;15.19;90.49;97714.03;4960205;28;20011;-61
2023/02/24 10:18:32;;;;;;;;;;;;;;;15.16;88.31;97698.66;4979972;28;20046;-60
2023/02/24 10:21:17;;;;;;;;;;;;;;;15.26;89.02;97686.97;4981628;28;19944;-61
2023/02/24 10:23:55;;;;;;;;;;;;;;;15.36;90.65;97693.31;4962335;28;19925;-60
2023/02/24 10:26:47;;;;;;;;;;;;;;;15.35;90.27;97692.47;4978621;28;20050;-61
2023/02/24 10:29:21;;;;;;;;;;;;;;;15.64;88.43;97688.34;4958192;28;20050;-61
2023/02/24 10:31:56;;;;;;;;;;;;;;;15.64;87.84;97688.34;4984195;28;19939;-60
2023/02/24 10:34:30;;;;;;;;;;;;;;;15.76;88.22;97673.94;4984605;28;20090;-61
2023/02/24 10:36:59;;;;;;;;;;;;;;;15.91;85.25;97662.75;4977264;28;19926;-59
2023/02/24 10:39:25;;;;;;;;;;;;;;;16.02;82.78;97660.38;5008762;28;20006;-61
2023/02/24 10:41:56;;;;;;;;;;;;;;;16.07;83.46;97660.97;5017941;28;19924;-60
2023/02/24 10:44:25;;;;;;;;;;;;;;;16.39;80.97;97653.94;5018944;28;19966;-59
2023/02/24 10:47:10;;;;;;;;;;;;;;;16.17;85.25;97661.25;5019348;28;19991;-60
2023/02/24 10:49:57;;;;;;;;;;;;;;;16.14;84.30;97646.75;5023570;28;20388;-61
2023/02/24 10:52:49;;;;;;;;;;;;;;;16.10;86.05;97640.09;5003764;28;20127;-59
2023/02/24 10:55:27;;;;;;;;;;;;;;;16.46;89.00;97640.56;5017106;28;19929;-60
2023/02/24 10:58:05;;;;;;;;;;;;;;;16.29;86.61;97635.56;5019317;28;19925;-60
2023/02/24 11:03:41;;;;;;;;;;;;;;;16.15;87.66;97612.22;5018284;28;20069;-60
2023/02/24 11:06:29;;;;;;;;;;;;;;;16.33;85.24;97615.50;5018135;28;20530;-60
2023/02/24 11:17:25;;;;;;;;;;;;;;;16.62;81.72;97590.53;4959756;28;19942;-59
2023/02/24 11:20:17;;;;;;;;;;;;;;;16.65;83.00;97585.16;4963125;28;20466;-59
2023/02/24 11:22:44;;;;;;;;;;;;;;;16.38;86.47;97585.00;4885481;29;20157;-60
2023/02/24 11:25:16;;;;;;;;;;;;;;;16.61;85.45;97578.50;4882230;29;19961;-60
2023/02/24 11:27:42;;;;;;;;;;;;;;;16.76;83.55;97573.22;4880940;29;20092;-61
2023/02/24 11:30:17;;;;;;;;;;;;;;;16.71;82.05;97567.53;4885298;29;19948;-55
2023/02/24 11:32:50;;;;;;;;;;;;;;;16.59;80.05;97559.66;4884107;29;20031;-60
2023/02/24 11:35:21;;;;;;;;;;;;;;;16.51;81.52;97554.09;4883150;29;19943;-60
2023/02/24 11:37:50;;;;;;;;;;;;;;;16.46;79.39;97554.38;4885563;29;19961;-61
2023/02/24 11:40:24;;;;;;;;;;;;;;;16.57;78.26;97551.13;4885374;29;19945;-59
2023/02/24 11:42:53;;;;;;;;;;;;;;;16.11;79.52;97543.50;4884824;29;19975;-60
2023/02/24 11:45:39;;;;;;;;;;;;;;;16.49;81.27;97535.22;4884204;29;19950;-60
2023/02/24 11:48:13;;;;;;;;;;;;;;;16.57;77.88;97533.00;4891001;29;20256;-59
2023/02/24 11:50:46;;;;;;;;;;;;;;;16.74;76.05;97523.31;4953395;28;19975;-58
2023/02/24 11:53:26;;;;;;;;;;;;;;;16.83;76.38;97514.16;4959555;28;19943;-60
2023/02/24 11:55:58;;;;;;;;;;;;;;;16.67;80.72;97513.44;4959755;28;20477;-59
2023/02/24 11:58:47;;;;;;;;;;;;;;;16.54;81.71;97509.91;4958297;28;19930;-61
2023/02/24 12:01:28;;;;;;;;;;;;;;;16.61;78.85;97511.22;4994716;28;19921;-60
2023/02/24 12:04:11;;;;;;;;;;;;;;;16.59;74.19;97506.13;5022339;28;19972;-60
2023/02/24 12:06:43;;;;;;;;;;;;;;;16.52;72.67;97493.63;5021270;28;20024;-61
2023/02/24 12:09:14;;;;;;;;;;;;;;;16.45;71.88;97494.03;5017240;28;19925;-60
2023/02/24 12:11:51;;;;;;;;;;;;;;;16.38;74.24;97484.13;5016726;28;20440;-59
2023/02/24 12:14:38;;;;;;;;;;;;;;;16.33;74.54;97476.66;5017964;28;19936;-60
2023/02/24 12:17:12;;;;;;;;;;;;;;;16.51;74.00;97473.88;5020699;28;20463;-60
2023/02/24 12:19:51;;;;;;;;;;;;;;;16.66;76.26;97470.38;5018108;28;19932;-60
2023/02/24 12:22:17;;;;;;;;;;;;;;;16.75;78.65;97467.22;5021419;28;20355;-60
2023/02/24 12:24:50;;;;;;;;;;;;;;;16.85;75.44;97460.53;5015271;28;20428;-55
2023/02/24 12:27:35;;;;;;;;;;;;;;;17.11;73.00;97457.13;5016478;28;19925;-60
2023/02/24 12:30:32;;;;;;;;;;;;;;;17.05;72.79;97449.75;5019786;28;19961;-61
2023/02/24 12:33:03;;;;;;;;;;;;;;;17.19;71.19;97448.84;5020631;28;20347;-61
2023/02/24 12:35:43;;;;;;;;;;;;;;;17.33;70.33;97436.69;5019209;28;19924;-59
2023/02/24 12:38:27;;;;;;;;;;;;;;;17.37;68.57;97437.31;5019812;28;19925;-62
2023/02/24 12:40:53;;;;;;;;;;;;;;;17.19;64.74;97436.72;5020019;28;20025;-60
2023/02/24 12:43:26;;;;;;;;;;;;;;;17.11;63.22;97427.78;5018941;28;20056;-59
2023/02/24 12:45:51;;;;;;;;;;;;;;;17.04;63.96;97431.72;5020887;28;20040;-61
2023/02/24 12:48:22;;;;;;;;;;;;;;;16.89;66.28;97426.56;5018544;28;19929;-60
2023/02/24 12:50:57;;;;;;;;;;;;;;;16.72;63.90;97421.63;5018098;28;19929;-60
2023/02/24 12:53:31;;;;;;;;;;;;;;;16.45;65.49;97407.81;5018483;28;19924;-59
2023/02/24 12:56:05;;;;;;;;;;;;;;;16.51;65.93;97417.75;5020130;28;19941;-58
2023/02/24 12:58:38;;;;;;;;;;;;;;;16.52;67.99;97408.25;5020441;28;19931;-59
2023/02/24 13:01:31;;;;;;;;;;;;;;;16.45;67.59;97405.22;5009982;28;19960;-58
2023/02/24 13:03:59;;;;;;;;;;;;;;;16.42;67.38;97402.84;4958811;28;20061;-60
2023/02/24 13:06:43;;;;;;;;;;;;;;;16.39;67.07;97397.84;4959664;28;19960;-60
2023/02/24 13:09:22;;;;;;;;;;;;;;;16.43;66.54;97394.97;4953105;28;19927;-61
2023/02/24 13:11:54;;;;;;;;;;;;;;;16.41;70.30;97390.81;4956371;28;21409;-60
2023/02/24 13:14:25;;;;;;;;;;;;;;;16.36;74.01;97385.94;4958130;28;19931;-59
2023/02/24 13:17:01;;;;;;;;;;;;;;;16.26;75.23;97386.56;4954787;28;19953;-59
2023/02/24 13:19:28;;;;;;;;;;;;;;;16.00;79.39;97383.00;4952937;28;19985;-59
2023/02/24 13:21:55;;;;;;;;;;;;;;;15.97;77.62;97390.94;4957795;28;20009;-59
2023/02/24 13:24:22;;;;;;;;;;;;;;;15.91;75.48;97391.34;4951326;28;19930;-59
2023/02/24 13:26:48;;;;;;;;;;;;;;;15.92;78.25;97382.63;4955362;28;20064;-59
2023/02/24 13:29:14;;;;;;;;;;;;;;;15.96;80.12;97374.59;4957492;28;20361;-61